Terminal Aerodrome Forecast
Issued by NWS King Salmon, AK

Home | Current Version | Previous Version | Text Only | Print | Product List | Glossary On
Versions: 1 2 3 4 5 6 7 8 9 10 11 12 13 14 15 16 17 18 19 20
000
FTAK31 PANC 211149
TAFAKN
TAF
PAKN 211149Z 2112/2212 35011KT P6SM SKC WS020/01045KT
     FM212100 36018G27KT P6SM SCT120=

USA.gov is the U.S. government's official web portal to all federal, state and local government web resources and services.